Time;durP1;ratioP1;P1;durP2;ratioP2;P2;SDS_P1;SDS_P2;PMS_P1;PMS_P2;Temp;Humidity;BMP_temperature;BMP_pressure;BME280_temperature;BME280_humidity;BME280_pressure;Samples;Min_cycle;Max_cycle;Signal;HPM_P1;HPM_P2
2023/10/09 00:01:49;;;;;;;10.43;2.53;;;;;;;;;;2533952;23;20514;-94
2023/10/09 00:02:50;;;;;;;8.23;2.25;;;;;;;;;;2112589;23;9999982;-92
2023/10/09 00:03:54;;;;;;;8.48;2.47;;;;;;;;;;2520591;23;20007;-92
2023/10/09 00:04:56;;;;;;;9.05;2.88;;;;;;;;;;2523514;23;20022;-92
2023/10/09 00:05:57;;;;;;;7.15;2.50;;;;;;;;;;2535667;23;20008;-92
2023/10/09 00:06:59;;;;;;;7.03;2.28;;;;;;;;;;2534031;23;20388;-91
2023/10/09 00:07:59;;;;;;;6.53;2.80;;;;;;;;;;2535525;23;20082;-91
2023/10/09 00:09:11;;;;;;;8.73;3.20;;;;;;;;;;2532630;23;20076;-92
2023/10/09 00:10:12;;;;;;;6.95;2.55;;;;;;;;;;2521746;23;20014;-91
2023/10/09 00:11:13;;;;;;;6.40;2.90;;;;;;;;;;2521664;23;20151;-92
2023/10/09 00:12:16;;;;;;;8.80;2.58;;;;;;;;;;2520517;23;20525;-91
2023/10/09 00:13:16;;;;;;;9.25;2.72;;;;;;;;;;2520565;23;20413;-90
2023/10/09 00:14:18;;;;;;;4.95;2.15;;;;;;;;;;2520574;23;20021;-91
2023/10/09 00:15:20;;;;;;;10.75;3.30;;;;;;;;;;2520866;23;20022;-90
2023/10/09 00:16:32;;;;;;;7.20;2.53;;;;;;;;;;2520638;23;20014;-91
2023/10/09 00:17:33;;;;;;;10.07;2.30;;;;;;;;;;2511022;23;20127;-91
2023/10/09 00:18:34;;;;;;;8.00;2.60;;;;;;;;;;2509218;23;20006;-90
2023/10/09 00:19:34;;;;;;;7.30;2.42;;;;;;;;;;2524448;23;19994;-91
2023/10/09 00:20:42;;;;;;;8.45;2.85;;;;;;;;;;2532830;23;20530;-90
2023/10/09 00:21:47;;;;;;;8.52;3.05;;;;;;;;;;2536081;23;19997;-92
2023/10/09 00:22:47;;;;;;;9.18;3.50;;;;;;;;;;2536522;23;20421;-90
2023/10/09 00:23:59;;;;;;;10.68;2.97;;;;;;;;;;2526472;23;20018;-91
2023/10/09 00:25:11;;;;;;;13.50;4.05;;;;;;;;;;2522289;23;20033;-89
2023/10/09 00:26:17;;;;;;;11.23;3.10;;;;;;;;;;2524726;23;20037;-89
2023/10/09 00:27:20;;;;;;;9.38;3.03;;;;;;;;;;2534159;23;20482;-89
2023/10/09 00:28:22;;;;;;;10.63;3.88;;;;;;;;;;2520487;23;20032;-90
2023/10/09 00:29:22;;;;;;;16.58;3.50;;;;;;;;;;2509018;23;20490;-89
2023/10/09 00:30:29;;;;;;;16.63;4.22;;;;;;;;;;2497035;23;20017;-89
2023/10/09 00:31:33;;;;;;;11.75;2.92;;;;;;;;;;2514838;23;20512;-88
2023/10/09 00:32:37;;;;;;;14.40;3.47;;;;;;;;;;2536982;23;20001;-90
2023/10/09 00:33:37;;;;;;;21.17;3.67;;;;;;;;;;2520647;23;19994;-92
2023/10/09 00:34:40;;;;;;;16.20;3.33;;;;;;;;;;2508616;23;20010;-91
2023/10/09 00:36:50;;;;;;;11.63;3.05;;;;;;;;;;2533686;23;19998;-91
2023/10/09 00:37:54;;;;;;;15.80;3.33;;;;;;;;;;2536022;23;20065;-91
2023/10/09 00:38:55;;;;;;;15.75;3.53;;;;;;;;;;2532365;23;20356;-91
2023/10/09 00:39:58;;;;;;;16.55;3.35;;;;;;;;;;2520450;23;20011;-91
2023/10/09 00:42:12;;;;;;;13.43;2.78;;;;;;;;;;2522522;23;20010;-91
2023/10/09 00:43:13;;;;;;;12.30;3.70;;;;;;;;;;2521084;23;20089;-90
2023/10/09 00:44:14;;;;;;;19.85;3.08;;;;;;;;;;2525407;23;20026;-90
2023/10/09 00:45:26;;;;;;;18.13;3.00;;;;;;;;;;2537229;23;20072;-91
2023/10/09 00:46:27;;;;;;;17.58;3.33;;;;;;;;;;2523345;23;20007;-91
2023/10/09 00:47:33;;;;;;;20.20;3.00;;;;;;;;;;2513555;23;20620;-91
2023/10/09 00:48:40;;;;;;;15.35;3.50;;;;;;;;;;2525613;23;20328;-91
2023/10/09 00:49:43;;;;;;;8.63;3.78;;;;;;;;;;2537387;23;19997;-91
2023/10/09 00:50:52;;;;;;;15.73;3.25;;;;;;;;;;2536886;23;20029;-90
2023/10/09 00:51:56;;;;;;;13.30;2.15;;;;;;;;;;2520788;23;20010;-91
2023/10/09 00:53:08;;;;;;;11.95;2.45;;;;;;;;;;2511715;23;20006;-90
2023/10/09 00:54:15;;;;;;;14.02;2.30;;;;;;;;;;2525098;23;20081;-90
2023/10/09 00:55:21;;;;;;;17.33;3.33;;;;;;;;;;2520445;23;20082;-90
2023/10/09 00:57:29;;;;;;;6.20;1.88;;;;;;;;;;2521583;23;20010;-90
2023/10/09 00:58:30;;;;;;;12.23;1.98;;;;;;;;;;2537154;23;20001;-91
2023/10/09 00:59:34;;;;;;;9.25;1.75;;;;;;;;;;2520577;23;19990;-90
2023/10/09 01:01:55;;;;;;;15.75;2.90;;;;;;;;;;2522722;23;20204;-90
2023/10/09 01:03:10;;;;;;;10.68;1.88;;;;;;;;;;2535730;23;20005;-90
2023/10/09 01:04:15;;;;;;;5.50;1.98;;;;;;;;;;2541000;23;20026;-91
2023/10/09 01:05:21;;;;;;;7.28;2.10;;;;;;;;;;2540751;23;20013;-91
2023/10/09 01:06:27;;;;;;;16.30;2.65;;;;;;;;;;2528108;23;20010;-89
2023/10/09 01:07:28;;;;;;;12.70;2.00;;;;;;;;;;2535786;23;20002;-90
2023/10/09 01:08:43;;;;;;;11.82;2.10;;;;;;;;;;2531089;23;20143;-91
2023/10/09 01:09:44;;;;;;;9.88;2.00;;;;;;;;;;2535596;23;20010;-90
2023/10/09 01:10:52;;;;;;;8.50;2.00;;;;;;;;;;2528758;23;19995;-89
2023/10/09 01:13:03;;;;;;;7.43;2.17;;;;;;;;;;2542600;23;20014;-90
2023/10/09 01:14:12;;;;;;;6.82;1.60;;;;;;;;;;2530393;23;20041;-90
2023/10/09 01:15:35;;;;;;;6.13;1.85;;;;;;;;;;2527238;23;20034;-90
2023/10/09 01:16:33;;;;;;;8.55;2.20;;;;;;;;;;2534589;23;20010;-91
2023/10/09 01:17:38;;;;;;;9.18;1.73;;;;;;;;;;2522393;23;20029;-90
2023/10/09 01:18:42;;;;;;;7.93;2.05;;;;;;;;;;2527893;23;20018;-91
2023/10/09 01:19:44;;;;;;;6.93;1.55;;;;;;;;;;2521674;23;20018;-90
2023/10/09 01:20:45;;;;;;;6.95;1.40;;;;;;;;;;2520655;23;20435;-91
2023/10/09 01:21:46;;;;;;;10.85;1.80;;;;;;;;;;2520495;23;19998;-90
2023/10/09 01:22:49;;;;;;;12.13;2.10;;;;;;;;;;2523327;23;20065;-90
2023/10/09 01:24:59;;;;;;;7.25;1.73;;;;;;;;;;2522572;23;19998;-90
2023/10/09 01:25:59;;;;;;;10.23;1.77;;;;;;;;;;2520693;23;20009;-91
2023/10/09 01:27:00;;;;;;;7.35;1.85;;;;;;;;;;2508472;23;20459;-90
2023/10/09 01:28:01;;;;;;;7.47;1.48;;;;;;;;;;2520106;23;20352;-90
2023/10/09 01:29:02;;;;;;;10.40;1.92;;;;;;;;;;2522224;23;20007;-90
2023/10/09 01:30:02;;;;;;;8.63;1.63;;;;;;;;;;2535122;23;20006;-90
2023/10/09 01:31:03;;;;;;;6.68;1.73;;;;;;;;;;2520824;23;20011;-89
2023/10/09 01:32:06;;;;;;;7.22;1.65;;;;;;;;;;2520494;23;20022;-91
2023/10/09 01:33:21;;;;;;;7.78;1.38;;;;;;;;;;2520364;23;20141;-91
2023/10/09 01:35:47;;;;;;;5.75;1.20;;;;;;;;;;2533798;23;20399;-90
2023/10/09 01:36:49;;;;;;;5.72;1.40;;;;;;;;;;2536024;23;20026;-91
2023/10/09 01:37:51;;;;;;;7.75;1.58;;;;;;;;;;2520385;23;20018;-91
2023/10/09 01:38:53;;;;;;;11.00;1.60;;;;;;;;;;2508600;23;20015;-91
2023/10/09 01:39:59;;;;;;;7.35;2.17;;;;;;;;;;2520259;23;20007;-91
2023/10/09 01:41:08;;;;;;;8.15;1.35;;;;;;;;;;2522160;23;20010;-93
2023/10/09 01:42:09;;;;;;;10.20;1.55;;;;;;;;;;2510129;23;20031;-92
2023/10/09 01:43:10;;;;;;;13.77;1.98;;;;;;;;;;2532460;23;20379;-91
2023/10/09 01:44:11;;;;;;;6.55;1.63;;;;;;;;;;2532368;23;19998;-91
2023/10/09 01:46:19;;;;;;;6.38;1.60;;;;;;;;;;2520989;23;20010;-90
2023/10/09 01:47:21;;;;;;;5.25;1.58;;;;;;;;;;2520199;23;20013;-90
2023/10/09 01:48:24;;;;;;;9.27;1.70;;;;;;;;;;2520587;23;20057;-91
2023/10/09 01:49:31;;;;;;;6.47;1.63;;;;;;;;;;2520525;23;20015;-91
2023/10/09 01:50:35;;;;;;;8.85;1.35;;;;;;;;;;2520163;23;20432;-92
2023/10/09 01:51:36;;;;;;;10.27;1.48;;;;;;;;;;2523845;23;20021;-92
2023/10/09 01:52:38;;;;;;;8.38;1.85;;;;;;;;;;2520223;23;20002;-93
2023/10/09 01:53:38;;;;;;;9.23;1.92;;;;;;;;;;2520205;23;20006;-91
2023/10/09 01:54:46;;;;;;;9.80;1.58;;;;;;;;;;2520163;23;20018;-93
2023/10/09 01:55:47;;;;;;;6.75;1.20;;;;;;;;;;2535219;23;20044;-92
2023/10/09 01:56:47;;;;;;;8.77;1.27;;;;;;;;;;2520298;23;20440;-91
2023/10/09 01:57:47;;;;;;;16.02;2.17;;;;;;;;;;2520158;23;20010;-91
2023/10/09 01:58:50;;;;;;;8.40;1.55;;;;;;;;;;2508185;23;20085;-91
2023/10/09 01:59:54;;;;;;;11.07;1.35;;;;;;;;;;2508563;23;20428;-90
2023/10/09 02:00:55;;;;;;;12.77;1.20;;;;;;;;;;2509069;23;20015;-90
2023/10/09 02:01:58;;;;;;;3.33;0.77;;;;;;;;;;2508334;23;20119;-91
2023/10/09 02:03:04;;;;;;;8.55;1.63;;;;;;;;;;2522552;23;20441;-92
2023/10/09 02:04:05;;;;;;;10.43;1.40;;;;;;;;;;2517029;23;20405;-91
2023/10/09 02:05:22;;;;;;;3.70;0.98;;;;;;;;;;2533939;23;20476;-90
2023/10/09 02:06:27;;;;;;;4.00;1.35;;;;;;;;;;2520677;23;20006;-91
2023/10/09 02:07:29;;;;;;;5.15;1.00;;;;;;;;;;2525446;23;20425;-89
2023/10/09 02:08:35;;;;;;;4.38;1.10;;;;;;;;;;2520249;23;19998;-92
2023/10/09 02:09:44;;;;;;;6.20;1.17;;;;;;;;;;2525378;23;20056;-91
2023/10/09 02:10:47;;;;;;;3.35;0.82;;;;;;;;;;2520450;23;20081;-91
2023/10/09 02:11:48;;;;;;;6.40;1.23;;;;;;;;;;2508860;23;20113;-91
2023/10/09 02:12:58;;;;;;;5.80;0.90;;;;;;;;;;2523014;23;20440;-91
2023/10/09 02:14:00;;;;;;;4.28;1.30;;;;;;;;;;2520189;23;20010;-91
2023/10/09 02:15:06;;;;;;;5.35;0.77;;;;;;;;;;2522387;23;20333;-91
2023/10/09 02:16:28;;;;;;;4.93;1.10;;;;;;;;;;2534832;23;20020;-91
2023/10/09 02:17:29;;;;;;;;;;;;;;;;;;2525137;23;20013;-90
2023/10/09 02:19:35;;;;;;;3.20;0.82;;;;;;;;;;2533290;23;20032;-91
2023/10/09 02:20:37;;;;;;;1.88;0.73;;;;;;;;;;2520153;23;20054;-93
2023/10/09 02:21:41;;;;;;;5.68;0.95;;;;;;;;;;2508649;23;20003;-90
2023/10/09 02:22:41;;;;;;;2.88;1.17;;;;;;;;;;2508881;23;19995;-92
2023/10/09 02:23:49;;;;;;;3.88;0.80;;;;;;;;;;2520220;23;19998;-92
2023/10/09 02:24:50;;;;;;;2.65;0.93;;;;;;;;;;2509564;23;20010;-91
2023/10/09 02:25:53;;;;;;;4.00;0.95;;;;;;;;;;2508291;23;20003;-90
2023/10/09 02:27:55;;;;;;;4.82;0.90;;;;;;;;;;2532958;23;20016;-90
2023/10/09 02:28:58;;;;;;;2.05;1.05;;;;;;;;;;2520294;23;20089;-91
2023/10/09 02:29:59;;;;;;;2.40;0.70;;;;;;;;;;2522829;23;20427;-91
2023/10/09 02:31:09;;;;;;;4.07;0.82;;;;;;;;;;2520315;23;20014;-90
2023/10/09 02:32:25;;;;;;;2.80;0.70;;;;;;;;;;2511243;23;20006;-91
2023/10/09 02:33:28;;;;;;;4.43;0.75;;;;;;;;;;2511382;23;20011;-92
2023/10/09 02:34:29;;;;;;;4.70;0.60;;;;;;;;;;2524950;23;20035;-93
2023/10/09 02:35:42;;;;;;;3.45;0.63;;;;;;;;;;2520339;23;20026;-91
2023/10/09 02:36:43;;;;;;;4.50;0.73;;;;;;;;;;2521095;23;19995;-92
2023/10/09 02:37:46;;;;;;;4.43;0.75;;;;;;;;;;2520394;23;19995;-92
2023/10/09 02:38:48;;;;;;;2.47;0.88;;;;;;;;;;2509243;23;20404;-92
2023/10/09 02:39:52;;;;;;;3.10;0.88;;;;;;;;;;2508298;23;20014;-91
2023/10/09 02:42:19;;;;;;;5.68;0.95;;;;;;;;;;2522857;23;20405;-93
2023/10/09 02:43:19;;;;;;;3.63;1.52;;;;;;;;;;2534060;23;20009;-92
2023/10/09 02:44:24;;;;;;;4.20;0.57;;;;;;;;;;2533544;23;20006;-93
2023/10/09 02:45:25;;;;;;;4.78;0.90;;;;;;;;;;2533712;23;20005;-92
2023/10/09 02:46:31;;;;;;;2.80;0.68;;;;;;;;;;2533652;23;20471;-92
2023/10/09 02:47:39;;;;;;;3.60;0.77;;;;;;;;;;2520294;23;20005;-92
2023/10/09 02:48:45;;;;;;;1.40;0.63;;;;;;;;;;2513031;23;19995;-91
2023/10/09 02:49:48;;;;;;;3.55;0.90;;;;;;;;;;2509330;23;19998;-93
2023/10/09 02:50:50;;;;;;;2.40;0.98;;;;;;;;;;2520522;23;20013;-93
2023/10/09 02:51:53;;;;;;;11.48;3.15;;;;;;;;;;2509341;23;20010;-91
2023/10/09 02:52:59;;;;;;;2.53;0.70;;;;;;;;;;2508700;23;20014;-91
2023/10/09 02:55:28;;;;;;;2.05;0.85;;;;;;;;;;2521081;23;20161;-93
2023/10/09 02:56:42;;;;;;;3.78;0.70;;;;;;;;;;2508504;23;20441;-91
2023/10/09 02:57:45;;;;;;;2.40;0.68;;;;;;;;;;2508438;23;20070;-91
2023/10/09 02:58:48;;;;;;;1.60;0.63;;;;;;;;;;2511710;23;20022;-92
2023/10/09 02:59:51;;;;;;;2.60;0.70;;;;;;;;;;2523649;23;20002;-93
2023/10/09 03:00:51;;;;;;;5.13;0.95;;;;;;;;;;2520406;23;20045;-93
2023/10/09 03:01:54;;;;;;;4.43;0.60;;;;;;;;;;2520617;23;20022;-91
2023/10/09 03:02:58;;;;;;;2.65;0.70;;;;;;;;;;2497749;23;20140;-91
2023/10/09 03:04:02;;;;;;;3.03;0.82;;;;;;;;;;2511406;23;20007;-92
2023/10/09 03:05:03;;;;;;;2.28;0.50;;;;;;;;;;2521031;23;20104;-92
2023/10/09 03:06:11;;;;;;;2.20;0.70;;;;;;;;;;2522846;23;20128;-92
2023/10/09 03:07:13;;;;;;;3.78;0.85;;;;;;;;;;2510073;23;20085;-92
2023/10/09 03:08:13;;;;;;;3.55;1.13;;;;;;;;;;2497647;23;20031;-92
2023/10/09 03:09:17;;;;;;;1.05;0.57;;;;;;;;;;2497381;23;20103;-92
2023/10/09 03:10:18;;;;;;;1.90;0.50;;;;;;;;;;2510047;23;20070;-91
2023/10/09 03:11:19;;;;;;;4.57;0.93;;;;;;;;;;2522308;23;20045;-92
2023/10/09 03:12:26;;;;;;;3.10;0.90;;;;;;;;;;2522458;23;20429;-91
2023/10/09 03:13:28;;;;;;;1.88;0.80;;;;;;;;;;2521145;23;20081;-91
2023/10/09 03:14:31;;;;;;;2.47;0.82;;;;;;;;;;2509126;23;20123;-91
2023/10/09 03:15:35;;;;;;;1.90;1.13;;;;;;;;;;2512932;23;20022;-91
2023/10/09 03:16:36;;;;;;;3.03;1.30;;;;;;;;;;2525218;23;19990;-92
2023/10/09 03:17:37;;;;;;;6.07;1.95;;;;;;;;;;2288901;23;5002232;-91
2023/10/09 03:18:37;;;;;;;9.00;3.13;;;;;;;;;;2485215;23;20438;-91
2023/10/09 03:20:20;;;;;;;9.15;2.53;;;;;;;;;;2510851;23;20058;-92
2023/10/09 03:21:20;;;;;;;4.15;1.70;;;;;;;;;;2522417;23;20061;-93
2023/10/09 03:22:21;;;;;;;3.47;1.15;;;;;;;;;;2509199;23;20421;-92
2023/10/09 03:23:21;;;;;;;2.35;1.13;;;;;;;;;;2497271;23;20029;-91
2023/10/09 03:24:22;;;;;;;5.25;0.77;;;;;;;;;;2509095;23;20086;-92
2023/10/09 03:25:25;;;;;;;7.03;0.80;;;;;;;;;;2509057;23;20437;-91
2023/10/09 03:26:25;;;;;;;3.03;0.80;;;;;;;;;;2509235;23;20014;-92
2023/10/09 03:27:25;;;;;;;1.52;0.70;;;;;;;;;;2508983;23;20038;-92
2023/10/09 03:28:26;;;;;;;2.53;1.00;;;;;;;;;;2508932;23;20006;-92
2023/10/09 03:29:27;;;;;;;1.88;0.70;;;;;;;;;;2510019;23;20357;-93
2023/10/09 03:30:27;;;;;;;2.10;0.70;;;;;;;;;;2497341;23;20011;-92
2023/10/09 03:31:31;;;;;;;1.25;0.63;;;;;;;;;;2497061;23;20003;-92
2023/10/09 03:32:32;;;;;;;11.23;1.17;;;;;;;;;;2508853;23;19995;-92
2023/10/09 03:33:32;;;;;;;1.00;0.60;;;;;;;;;;2497289;23;20033;-92
2023/10/09 03:34:33;;;;;;;2.72;0.80;;;;;;;;;;2496773;23;20007;-91
2023/10/09 03:35:36;;;;;;;3.85;1.02;;;;;;;;;;2512186;23;20102;-91
2023/10/09 03:36:39;;;;;;;1.25;0.70;;;;;;;;;;2508919;23;20350;-91
2023/10/09 03:37:39;;;;;;;2.00;0.60;;;;;;;;;;2497707;23;19999;-91
2023/10/09 03:38:40;;;;;;;1.40;0.80;;;;;;;;;;2513931;23;20030;-91
2023/10/09 03:39:41;;;;;;;3.05;0.80;;;;;;;;;;2511053;23;19999;-92
2023/10/09 03:40:47;;;;;;;4.07;0.70;;;;;;;;;;2508899;23;20472;-91
2023/10/09 03:41:50;;;;;;;1.73;0.40;;;;;;;;;;2508883;23;20083;-92
2023/10/09 03:42:52;;;;;;;2.67;1.00;;;;;;;;;;2509241;23;20074;-91
2023/10/09 03:43:56;;;;;;;4.32;0.90;;;;;;;;;;2509018;23;20065;-92
2023/10/09 03:44:57;;;;;;;4.35;1.08;;;;;;;;;;2511485;23;19999;-92
2023/10/09 03:45:59;;;;;;;3.65;0.90;;;;;;;;;;2523728;23;20002;-92
2023/10/09 03:47:00;;;;;;;2.75;0.90;;;;;;;;;;2523749;23;20003;-92
2023/10/09 03:48:04;;;;;;;1.75;0.50;;;;;;;;;;2508836;23;20011;-90
2023/10/09 03:49:10;;;;;;;3.85;0.75;;;;;;;;;;2497645;23;20454;-93
2023/10/09 03:50:26;;;;;;;1.85;0.63;;;;;;;;;;2499146;23;20043;-93
2023/10/09 03:51:29;;;;;;;2.53;0.70;;;;;;;;;;2500077;23;20499;-93
2023/10/09 03:52:30;;;;;;;2.50;0.77;;;;;;;;;;2497258;23;20074;-92
2023/10/09 03:53:31;;;;;;;4.03;0.70;;;;;;;;;;2509303;23;20062;-92
2023/10/09 03:54:34;;;;;;;2.90;1.02;;;;;;;;;;2497853;23;20102;-92
2023/10/09 03:55:38;;;;;;;1.42;0.85;;;;;;;;;;2503245;23;20473;-90
2023/10/09 03:56:38;;;;;;;2.03;0.90;;;;;;;;;;2510905;23;20378;-90
2023/10/09 03:57:40;;;;;;;1.90;0.88;;;;;;;;;;2498609;23;20015;-88
2023/10/09 03:58:43;;;;;;;2.78;1.30;;;;;;;;;;2510516;23;20045;-91
2023/10/09 03:59:44;;;;;;;4.78;1.13;;;;;;;;;;2511841;23;19995;-88
2023/10/09 04:00:49;;;;;;;2.92;1.13;;;;;;;;;;2508999;23;19995;-90
2023/10/09 04:01:52;;;;;;;4.72;1.10;;;;;;;;;;2508976;23;20074;-90
2023/10/09 04:02:57;;;;;;;4.32;1.15;;;;;;;;;;2497507;23;20007;-91
2023/10/09 04:04:02;;;;;;;2.75;1.20;;;;;;;;;;2511451;23;20102;-92
2023/10/09 04:05:05;;;;;;;4.07;1.30;;;;;;;;;;2508779;23;20017;-91
2023/10/09 04:06:08;;;;;;;1.52;0.90;;;;;;;;;;2497490;23;20050;-91
2023/10/09 04:07:08;;;;;;;2.83;1.17;;;;;;;;;;2497142;23;20010;-91
2023/10/09 04:08:28;;;;;;;6.80;1.63;;;;;;;;;;2496824;23;20033;-91
2023/10/09 04:09:35;;;;;;;3.45;1.92;;;;;;;;;;2508114;23;20010;-91
2023/10/09 04:10:51;;;;;;;3.38;1.55;;;;;;;;;;2517751;23;20015;-90
2023/10/09 04:13:16;;;;;;;4.30;2.00;;;;;;;;;;2524585;23;20073;-90
2023/10/09 04:14:35;;;;;;;2.85;1.40;;;;;;;;;;2512639;23;20015;-91
2023/10/09 04:15:36;;;;;;;3.38;1.20;;;;;;;;;;2508528;23;20473;-89
2023/10/09 04:16:51;;;;;;;2.88;1.63;;;;;;;;;;2496934;23;20004;-90
2023/10/09 04:17:52;;;;;;;4.50;1.50;;;;;;;;;;2508961;23;20015;-90
2023/10/09 04:18:52;;;;;;;1.42;0.98;;;;;;;;;;2508765;23;20070;-90
2023/10/09 04:21:34;;;;;;;3.17;0.85;;;;;;;;;;2513596;23;20006;-90
2023/10/09 04:22:49;;;;;;;1.65;1.10;;;;;;;;;;2508689;23;20002;-89
2023/10/09 04:25:14;;;;;;;1.77;0.90;;;;;;;;;;2524038;23;20026;-90
2023/10/09 04:26:15;;;;;;;1.70;0.80;;;;;;;;;;2523382;23;20045;-90
2023/10/09 04:27:17;;;;;;;5.10;1.20;;;;;;;;;;2524761;23;19998;-90
2023/10/09 04:28:21;;;;;;;6.22;5.05;;;;;;;;;;2509149;23;20013;-90
2023/10/09 04:29:26;;;;;;;3.63;3.33;;;;;;;;;;2500074;23;20098;-90
2023/10/09 04:30:27;;;;;;;3.10;2.10;;;;;;;;;;2509714;23;20333;-90
2023/10/09 04:31:31;;;;;;;2.75;1.10;;;;;;;;;;2520726;23;20009;-90
2023/10/09 04:32:34;;;;;;;6.20;1.35;;;;;;;;;;2508673;23;19999;-90
2023/10/09 04:33:42;;;;;;;3.63;1.00;;;;;;;;;;2508797;23;19995;-91
2023/10/09 04:34:49;;;;;;;3.97;1.15;;;;;;;;;;2523703;23;20006;-89
2023/10/09 04:36:12;;;;;;;2.15;0.98;;;;;;;;;;2508593;23;20007;-91
2023/10/09 04:38:15;;;;;;;2.85;0.77;;;;;;;;;;2521627;23;20044;-91
2023/10/09 04:39:35;;;;;;;1.83;0.75;;;;;;;;;;2509006;23;20021;-92
2023/10/09 04:42:58;;;;;;;2.70;1.17;;;;;;;;;;2521662;23;20086;-91
2023/10/09 04:45:25;;;;;;;2.80;1.00;;;;;;;;;;2513231;23;20011;-92
2023/10/09 04:46:26;;;;;;;2.00;0.98;;;;;;;;;;2520797;23;20430;-92
2023/10/09 04:47:49;;;;;;;2.78;1.27;;;;;;;;;;2508724;23;20085;-92
2023/10/09 04:48:52;;;;;;;2.25;0.65;;;;;;;;;;2516373;23;20006;-92
2023/10/09 04:50:03;;;;;;;2.40;1.25;;;;;;;;;;2508766;23;20074;-92
2023/10/09 04:51:33;;;;;;;2.53;0.68;;;;;;;;;;2500240;23;20011;-92
2023/10/09 04:53:43;;;;;;;1.40;0.93;;;;;;;;;;2509148;23;20468;-92
2023/10/09 04:56:05;;;;;;;2.20;0.80;;;;;;;;;;2524599;23;20002;-92
2023/10/09 04:57:17;;;;;;;2.75;0.90;;;;;;;;;;2519868;23;20035;-92
2023/10/09 04:58:23;;;;;;;3.00;0.98;;;;;;;;;;2511192;23;19999;-91
2023/10/09 04:59:25;;;;;;;4.47;2.75;;;;;;;;;;2520270;23;20054;-92
2023/10/09 05:01:35;;;;;;;4.32;0.77;;;;;;;;;;2510435;23;20489;-91
2023/10/09 05:02:36;;;;;;;2.05;0.93;;;;;;;;;;2525287;23;20418;-92
2023/10/09 05:04:41;;;;;;;3.00;0.82;;;;;;;;;;2509768;23;20003;-90
2023/10/09 05:06:57;;;;;;;2.00;0.90;;;;;;;;;;2509091;23;20010;-91
2023/10/09 05:08:00;;;;;;;2.10;1.05;;;;;;;;;;2508708;23;20025;-91
2023/10/09 05:09:15;;;;;;;2.72;0.73;;;;;;;;;;2511559;23;20362;-92
2023/10/09 05:10:17;;;;;;;3.17;2.03;;;;;;;;;;2508865;23;20007;-91
2023/10/09 05:12:46;;;;;;;6.85;1.38;;;;;;;;;;2512913;23;20412;-93
2023/10/09 05:13:57;;;;;;;2.83;0.82;;;;;;;;;;2508827;23;20019;-92
2023/10/09 05:15:12;;;;;;;4.53;1.00;;;;;;;;;;2498682;23;20067;-91
2023/10/09 05:16:26;;;;;;;3.35;1.10;;;;;;;;;;2508657;23;20089;-92
2023/10/09 05:17:26;;;;;;;8.38;1.48;;;;;;;;;;2499488;23;20004;-94
2023/10/09 05:18:27;;;;;;;3.45;1.10;;;;;;;;;;2498202;23;20094;-92
2023/10/09 05:19:54;;;;;;;4.18;1.25;;;;;;;;;;2497833;23;20008;-93
2023/10/09 05:21:28;;;;;;;5.35;1.20;;;;;;;;;;2502086;23;20015;-92
2023/10/09 05:22:36;;;;;;;7.05;1.20;;;;;;;;;;2513119;23;20021;-92
2023/10/09 05:23:44;;;;;;;3.08;1.10;;;;;;;;;;2520548;23;20017;-91
2023/10/09 05:24:47;;;;;;;3.95;0.90;;;;;;;;;;2508319;23;20002;-91
2023/10/09 05:25:53;;;;;;;2.65;0.90;;;;;;;;;;2497197;23;21920;-92
2023/10/09 05:27:12;;;;;;;1.80;0.93;;;;;;;;;;2509825;23;20007;-90
2023/10/09 05:28:25;;;;;;;3.35;1.10;;;;;;;;;;2509446;23;20014;-92
2023/10/09 05:30:33;;;;;;;1.38;0.70;;;;;;;;;;2509133;23;20007;-91
2023/10/09 05:31:56;;;;;;;18.98;2.08;;;;;;;;;;2511992;23;20013;-92
2023/10/09 05:33:27;;;;;;;2.05;1.13;;;;;;;;;;2501324;23;20006;-92
2023/10/09 05:34:21;;;;;;;6.20;1.67;;;;;;;;;;2513579;23;20081;-92
2023/10/09 05:35:39;;;;;;;12.18;4.15;;;;;;;;;;2508783;23;20010;-92
2023/10/09 05:36:47;;;;;;;5.38;2.17;;;;;;;;;;2501422;23;20412;-92
2023/10/09 05:37:59;;;;;;;3.28;1.25;;;;;;;;;;2499049;23;20105;-92
2023/10/09 05:39:16;;;;;;;2.70;0.80;;;;;;;;;;2501360;23;20358;-93
2023/10/09 05:42:46;;;;;;;1.60;1.02;;;;;;;;;;2466687;23;20008;-92
2023/10/09 05:46:35;;;;;;;1.80;1.38;;;;;;;;;;2522169;23;20010;-91
2023/10/09 05:47:37;;;;;;;2.13;0.90;;;;;;;;;;2525805;23;19998;-93
2023/10/09 05:49:54;;;;;;;1.20;0.95;;;;;;;;;;2521966;23;19994;-92
2023/10/09 05:52:32;;;;;;;4.43;1.30;;;;;;;;;;2522604;23;20014;-92
2023/10/09 06:04:17;;;;;;;5.05;1.15;;;;;;;;;;2538876;23;20013;-94
2023/10/09 06:06:44;;;;;;;1.13;0.80;;;;;;;;;;2524370;23;20014;-92
2023/10/09 06:08:04;;;;;;;1.98;1.05;;;;;;;;;;2536635;23;19994;-92
2023/10/09 06:09:28;;;;;;;3.80;1.05;;;;;;;;;;2535172;23;20006;-92
2023/10/09 06:10:39;;;;;;;2.35;0.80;;;;;;;;;;2520400;23;20065;-92
2023/10/09 06:13:37;;;;;;;1.42;0.70;;;;;;;;;;2505097;23;20164;-93
2023/10/09 06:14:57;;;;;;;1.88;1.02;;;;;;;;;;2534413;23;20093;-92
2023/10/09 06:16:09;;;;;;;1.40;0.70;;;;;;;;;;2534890;23;20096;-92
2023/10/09 06:17:26;;;;;;;2.50;0.90;;;;;;;;;;2520655;23;20369;-92
2023/10/09 06:18:32;;;;;;;3.38;0.90;;;;;;;;;;2512328;23;20010;-92
2023/10/09 06:19:42;;;;;;;3.33;0.80;;;;;;;;;;2513424;23;20017;-92
2023/10/09 06:23:50;;;;;;;1.23;0.65;;;;;;;;;;2534830;23;20391;-93
2023/10/09 06:24:41;;;;;;;3.50;0.77;;;;;;;;;;2533476;23;20010;-93
2023/10/09 06:25:50;;;;;;;3.83;0.95;;;;;;;;;;2521341;23;19998;-93
2023/10/09 06:27:12;;;;;;;4.00;1.42;;;;;;;;;;2510559;23;20089;-93
2023/10/09 06:28:13;;;;;;;4.75;1.08;;;;;;;;;;2526409;23;20072;-92
2023/10/09 06:29:14;;;;;;;4.68;1.00;;;;;;;;;;2520596;23;20121;-93
2023/10/09 06:31:56;;;;;;;2.65;1.30;;;;;;;;;;2520825;23;20017;-92
2023/10/09 06:32:51;;;;;;;3.30;1.00;;;;;;;;;;2532688;23;20056;-92
2023/10/09 06:35:30;;;;;;;1.70;0.77;;;;;;;;;;2507601;23;20478;-92
2023/10/09 06:36:31;;;;;;;2.10;0.75;;;;;;;;;;2522877;23;20007;-91
2023/10/09 06:39:50;;;;;;;2.33;1.10;;;;;;;;;;2521080;23;19998;-92
2023/10/09 06:41:34;;;;;;;4.13;0.90;;;;;;;;;;2473523;23;20143;-93
2023/10/09 06:43:42;;;;;;;6.65;1.15;;;;;;;;;;2520207;23;19998;-93
2023/10/09 06:44:52;;;;;;;1.75;1.00;;;;;;;;;;2520879;23;20535;-91
2023/10/09 06:47:17;;;;;;;5.47;0.90;;;;;;;;;;2525834;23;20448;-92
2023/10/09 06:49:37;;;;;;;8.75;1.70;;;;;;;;;;2524854;23;20033;-91
2023/10/09 06:50:58;;;;;;;3.38;0.73;;;;;;;;;;2537378;23;19993;-92
2023/10/09 06:52:13;;;;;;;7.93;1.35;;;;;;;;;;2520911;23;20054;-92
2023/10/09 06:54:15;;;;;;;1.75;0.95;;;;;;;;;;2521212;23;20335;-92
2023/10/09 06:55:32;;;;;;;2.15;1.05;;;;;;;;;;2520973;23;20417;-91
2023/10/09 06:57:48;;;;;;;1.98;0.70;;;;;;;;;;2521027;23;20002;-91
2023/10/09 06:58:54;;;;;;;1.92;0.98;;;;;;;;;;2520871;23;20452;-92
2023/10/09 07:03:35;;;;;;;2.92;0.85;;;;;;;;;;2521321;23;20010;-91
2023/10/09 07:05:48;;;;;;;3.95;0.95;;;;;;;;;;2510209;23;20003;-91
2023/10/09 07:06:50;;;;;;;3.10;0.90;;;;;;;;;;2520877;23;20054;-91
2023/10/09 07:07:55;;;;;;;2.88;1.30;;;;;;;;;;2520915;23;19990;-91
2023/10/09 07:12:44;;;;;;;5.53;1.40;;;;;;;;;;2533805;23;20033;-92
2023/10/09 07:13:52;;;;;;;3.22;0.82;;;;;;;;;;2520686;23;20029;-92
2023/10/09 07:17:15;;;;;;;2.33;1.10;;;;;;;;;;2534702;23;20010;-93
2023/10/09 07:18:23;;;;;;;3.38;1.30;;;;;;;;;;2534673;23;20384;-93
2023/10/09 07:20:45;;;;;;;5.93;1.25;;;;;;;;;;2533824;23;20452;-92
2023/10/09 07:21:53;;;;;;;1.85;0.95;;;;;;;;;;2520603;23;19998;-92
2023/10/09 07:22:56;;;;;;;4.93;3.13;;;;;;;;;;2524952;23;20003;-93
2023/10/09 07:24:03;;;;;;;2.40;1.15;;;;;;;;;;2521100;23;20055;-90
2023/10/09 07:25:16;;;;;;;2.53;1.67;;;;;;;;;;2510276;23;20010;-90
2023/10/09 07:26:23;;;;;;;3.08;1.15;;;;;;;;;;2510901;23;20371;-90
2023/10/09 07:29:21;;;;;;;4.63;1.25;;;;;;;;;;2482413;23;20012;-90
2023/10/09 07:31:39;;;;;;;3.78;0.75;;;;;;;;;;2485746;23;20075;-91
2023/10/09 07:32:43;;;;;;;3.90;1.52;;;;;;;;;;2478911;23;20090;-91
2023/10/09 07:33:59;;;;;;;3.22;0.88;;;;;;;;;;2475417;23;20091;-92
2023/10/09 07:35:00;;;;;;;2.00;1.02;;;;;;;;;;2500930;23;20135;-93
2023/10/09 07:36:07;;;;;;;4.05;1.00;;;;;;;;;;2511589;23;20055;-91
2023/10/09 07:37:09;;;;;;;2.63;1.40;;;;;;;;;;2521515;23;20006;-91
2023/10/09 07:38:14;;;;;;;2.22;0.98;;;;;;;;;;2509740;23;20002;-92
2023/10/09 07:39:15;;;;;;;2.75;1.05;;;;;;;;;;2510317;23;20015;-91
2023/10/09 07:40:16;;;;;;;2.65;0.95;;;;;;;;;;2521866;23;20008;-92
2023/10/09 07:42:26;;;;;;;2.13;0.90;;;;;;;;;;2521987;23;20006;-91
2023/10/09 07:43:39;;;;;;;1.23;0.88;;;;;;;;;;2534614;23;20013;-92
2023/10/09 07:44:42;;;;;;;4.32;2.55;;;;;;;;;;2536885;23;20029;-93
2023/10/09 07:46:52;;;;;;;2.00;1.20;;;;;;;;;;2533911;23;20002;-92
2023/10/09 07:48:04;;;;;;;3.42;1.17;;;;;;;;;;2520983;23;20081;-92
2023/10/09 07:49:21;;;;;;;3.55;1.33;;;;;;;;;;2525275;23;20142;-91
2023/10/09 07:50:21;;;;;;;6.43;1.75;;;;;;;;;;2524873;23;20010;-91
2023/10/09 07:51:30;;;;;;;3.22;1.40;;;;;;;;;;2513349;23;20007;-91
2023/10/09 07:52:31;;;;;;;3.20;1.70;;;;;;;;;;2512672;23;20007;-91
2023/10/09 07:53:43;;;;;;;3.67;1.25;;;;;;;;;;2509109;23;20007;-91
2023/10/09 07:55:02;;;;;;;2.33;1.00;;;;;;;;;;2514301;23;20055;-91
2023/10/09 07:56:06;;;;;;;3.50;1.10;;;;;;;;;;2513228;23;20488;-91
2023/10/09 07:57:15;;;;;;;1.83;1.08;;;;;;;;;;2521639;23;20024;-91
2023/10/09 07:58:16;;;;;;;3.60;1.13;;;;;;;;;;2521154;23;20098;-92